Hasse, Texas
Current Conditions -  °F | °C
As of 7:35 PM on Tuesday 25 Nov 2014 (Local Time) from KMKN Reporting Station
Clear Clear  
Wind Chill: 45°   Ceiling: Unl
Heat Index: 48°   Visibility: 10mi
Dew Point: 28°   Wind: 7mph
Humidity: 46%   Direction: 220°SW
Pressure: 30.18"   Gusts: NA
Location:  31.9079°N, 98.6578°W
Report Text: KMKN 260135Z AUTO 22006KT 10SM CLR 09/M02 A3018 RMK AO2 T00911020
Loading
Personal Weather Stations






























Interactive Weather Map New forecast layout! Learn more

10-Day Weather Forecast

Advertisements
Track Severe Weather on mobile